Time;durP1;ratioP1;P1;durP2;ratioP2;P2;SDS_P1;SDS_P2;PMS_P1;PMS_P2;Temp;Humidity;BMP_temperature;BMP_pressure;BME280_temperature;BME280_humidity;BME280_pressure;Samples;Min_cycle;Max_cycle;Signal;HPM_P1;HPM_P2
2022/01/15 00:01:45;;;;;;;5.22;2.70;;;2.60;73.80;;;;;;6246845;23;19996;-73
2022/01/15 00:04:11;;;;;;;4.65;2.15;;;2.50;73.90;;;;;;6246715;23;19996;-73
2022/01/15 00:06:37;;;;;;;3.95;1.63;;;2.50;72.90;;;;;;6246872;23;20007;-74
2022/01/15 00:09:04;;;;;;;1.88;1.10;;;2.40;72.80;;;;;;6246780;23;20000;-74
2022/01/15 00:11:31;;;;;;;1.65;0.93;;;2.40;72.40;;;;;;6247189;23;20363;-74
2022/01/15 00:14:12;;;;;;;2.63;1.20;;;2.30;72.70;;;;;;6219952;23;20007;-74
2022/01/15 00:16:57;;;;;;;2.90;1.17;;;2.30;72.50;;;;;;6219233;23;19996;-73
2022/01/15 00:19:40;;;;;;;4.72;1.40;;;2.30;72.20;;;;;;6220094;23;20008;-73
2022/01/15 00:22:05;;;;;;;4.90;1.30;;;2.30;71.90;;;;;;6246886;23;20075;-74
2022/01/15 00:25:06;;;;;;;3.00;1.40;;;2.30;72.00;;;;;;6220426;23;20442;-76
2022/01/15 00:27:43;;;;;;;2.47;1.20;;;2.30;71.20;;;;;;6209480;23;20083;-79
2022/01/15 00:30:09;;;;;;;3.53;1.20;;;2.40;71.40;;;;;;6219944;23;20079;-74
2022/01/15 00:32:35;;;;;;;3.28;1.05;;;2.40;70.90;;;;;;6216243;23;20083;-74
2022/01/15 00:35:01;;;;;;;6.63;1.33;;;2.40;70.90;;;;;;6212872;23;20105;-75
2022/01/15 00:37:31;;;;;;;3.25;1.40;;;2.40;71.20;;;;;;6215646;23;20494;-77
2022/01/15 00:40:00;;;;;;;2.22;1.13;;;2.40;71.10;;;;;;6245808;23;20067;-73
2022/01/15 00:42:28;;;;;;;8.02;1.10;;;2.30;71.30;;;;;;6246650;23;20429;-74
2022/01/15 00:44:56;;;;;;;3.00;1.10;;;2.30;71.50;;;;;;6243945;23;20099;-76
2022/01/15 00:47:21;;;;;;;4.50;1.20;;;2.30;71.90;;;;;;6219321;23;20055;-76
2022/01/15 00:49:47;;;;;;;2.00;1.15;;;2.20;72.20;;;;;;6245152;23;20031;-75
2022/01/15 00:52:13;;;;;;;2.25;0.98;;;2.20;72.70;;;;;;6219373;23;20004;-76
2022/01/15 00:54:39;;;;;;;102.43;50.00;;;2.10;73.00;;;;;;6219686;23;20070;-78
2022/01/15 00:57:05;;;;;;;356.60;190.95;;;2.10;73.90;;;;;;6246657;23;20374;-75
2022/01/15 00:59:30;;;;;;;63.03;29.95;;;2.00;74.30;;;;;;6246814;23;20067;-75
2022/01/15 01:01:56;;;;;;;30.10;14.35;;;2.00;74.80;;;;;;6219736;23;20037;-74
2022/01/15 01:04:21;;;;;;;14.45;6.70;;;1.90;75.30;;;;;;6246419;23;20004;-74
2022/01/15 01:06:47;;;;;;;7.75;3.15;;;1.80;75.90;;;;;;6219639;23;20004;-74
2022/01/15 01:09:13;;;;;;;5.13;2.17;;;1.80;76.60;;;;;;6219946;23;20012;-74
2022/01/15 01:11:51;;;;;;;4.20;1.58;;;1.70;77.20;;;;;;6219740;23;20366;-74
2022/01/15 01:20:07;;;;;;;6.38;1.35;;;1.70;79.20;;;;;;6248258;23;20010;-75
2022/01/15 01:25:03;;;;;;;4.75;1.52;;;1.60;79.60;;;;;;6248538;23;20419;-74
2022/01/15 01:27:42;;;;;;;2.88;1.20;;;1.60;80.30;;;;;;6221624;23;20004;-74
2022/01/15 01:30:19;;;;;;;5.28;1.70;;;1.60;80.90;;;;;;6221659;23;20000;-74
2022/01/15 01:35:28;;;;;;;2.03;1.20;;;1.50;82.60;;;;;;6248308;23;20015;-75
2022/01/15 01:37:55;;;;;;;3.50;0.95;;;1.40;82.60;;;;;;6248552;23;20023;-75
2022/01/15 01:40:25;;;;;;;3.40;1.05;;;1.30;82.70;;;;;;6248463;23;20063;-75
2022/01/15 01:43:01;;;;;;;2.75;1.17;;;1.30;83.00;;;;;;6222472;23;20008;-75
2022/01/15 01:45:26;;;;;;;2.05;1.08;;;1.30;83.10;;;;;;6248327;23;20023;-74
2022/01/15 01:47:52;;;;;;;2.05;1.17;;;1.30;83.00;;;;;;6248225;23;19996;-74
2022/01/15 01:50:26;;;;;;;3.35;1.52;;;1.30;82.80;;;;;;6247906;23;20000;-73
2022/01/15 01:52:55;;;;;;;3.00;1.25;;;1.30;82.50;;;;;;6248055;23;20018;-74
2022/01/15 01:55:23;;;;;;;3.45;1.33;;;1.30;82.20;;;;;;6248066;23;20319;-74
2022/01/15 01:57:50;;;;;;;2.83;1.20;;;1.30;81.80;;;;;;6248325;23;20423;-74
2022/01/15 02:00:19;;;;;;;3.53;1.00;;;1.20;81.30;;;;;;6247730;23;20023;-74
2022/01/15 02:02:45;;;;;;;4.07;1.23;;;1.20;81.10;;;;;;6248159;23;19996;-73
2022/01/15 02:05:12;;;;;;;3.85;1.13;;;1.20;81.00;;;;;;6248096;23;20015;-74
2022/01/15 02:07:40;;;;;;;3.92;1.50;;;1.20;81.10;;;;;;6248056;23;20462;-74
2022/01/15 02:10:09;;;;;;;3.38;1.27;;;1.20;81.70;;;;;;6221155;23;20008;-74
2022/01/15 02:12:35;;;;;;;4.68;1.58;;;1.20;82.20;;;;;;6248319;23;20083;-74
2022/01/15 02:15:20;;;;;;;3.22;0.95;;;1.20;83.30;;;;;;6221262;23;20335;-74
2022/01/15 02:17:47;;;;;;;3.13;1.23;;;1.10;83.90;;;;;;6248004;23;20000;-74
2022/01/15 02:25:46;;;;;;;5.28;1.63;;;1.10;86.90;;;;;;6247740;23;20011;-74
2022/01/15 02:28:12;;;;;;;3.22;1.60;;;1.10;87.70;;;;;;6220525;23;20000;-74
2022/01/15 02:30:39;;;;;;;1.35;1.13;;;1.10;87.60;;;;;;6220664;23;20087;-75
2022/01/15 02:33:06;;;;;;;4.97;1.48;;;1.10;88.10;;;;;;6220676;23;20000;-74
2022/01/15 02:35:32;;;;;;;4.60;1.42;;;1.10;88.80;;;;;;6247654;23;20000;-74
2022/01/15 02:38:08;;;;;;;3.45;1.63;;;1.10;88.80;;;;;;6220849;23;20000;-74
2022/01/15 02:40:36;;;;;;;2.80;1.20;;;1.10;89.00;;;;;;6221173;23;20034;-74
2022/01/15 02:43:05;;;;;;;3.83;1.35;;;1.10;88.90;;;;;;6220899;23;20000;-74
2022/01/15 02:45:33;;;;;;;3.22;1.38;;;1.10;88.70;;;;;;6220744;23;20031;-74
2022/01/15 02:48:17;;;;;;;3.47;1.48;;;1.10;88.60;;;;;;6220720;23;20000;-74
2022/01/15 02:50:45;;;;;;;4.38;1.20;;;1.10;89.70;;;;;;6220475;23;20004;-74
2022/01/15 02:53:13;;;;;;;4.00;1.30;;;1.00;89.30;;;;;;6247532;23;20062;-74
2022/01/15 02:55:43;;;;;;;4.55;1.40;;;1.00;89.50;;;;;;6220592;23;20036;-73
2022/01/15 02:58:09;;;;;;;1.47;0.93;;;1.00;89.90;;;;;;6220391;23;20007;-74
2022/01/15 03:00:35;;;;;;;2.95;0.90;;;1.00;90.00;;;;;;6220731;23;20000;-75
2022/01/15 03:03:01;;;;;;;2.67;1.00;;;1.00;90.10;;;;;;6220670;23;20004;-75
2022/01/15 03:05:26;;;;;;;2.67;0.88;;;1.00;90.00;;;;;;6247472;23;20437;-75
2022/01/15 03:07:52;;;;;;;2.90;1.02;;;1.00;89.70;;;;;;6247219;23;20004;-75
2022/01/15 03:10:18;;;;;;;2.10;1.35;;;1.00;89.10;;;;;;6247849;23;19996;-75
2022/01/15 03:12:44;;;;;;;3.33;1.17;;;1.00;88.90;;;;;;6248478;23;20075;-75
2022/01/15 03:15:13;;;;;;;6.10;1.77;;;1.00;88.00;;;;;;6222171;23;20457;-75
2022/01/15 03:17:39;;;;;;;2.78;1.17;;;1.00;87.30;;;;;;6220645;23;20023;-75
2022/01/15 03:20:06;;;;;;;2.13;1.17;;;1.00;86.70;;;;;;6246983;23;20427;-77
2022/01/15 03:22:31;;;;;;;2.53;1.40;;;1.00;86.00;;;;;;6247297;23;19992;-75
2022/01/15 03:24:57;;;;;;;2.83;1.00;;;1.00;84.30;;;;;;6220055;23;20083;-75
2022/01/15 03:27:24;;;;;;;4.47;1.63;;;1.00;83.70;;;;;;6247361;23;20007;-75
2022/01/15 03:29:53;;;;;;;2.60;1.40;;;1.00;82.50;;;;;;6220853;23;20001;-75
2022/01/15 03:32:19;;;;;;;2.33;1.15;;;1.10;81.50;;;;;;6220056;23;20007;-75
2022/01/15 03:34:46;;;;;;;2.45;1.05;;;1.20;80.70;;;;;;6247217;23;20019;-75
2022/01/15 03:37:12;;;;;;;2.50;1.00;;;1.20;80.70;;;;;;6246773;23;19996;-75
2022/01/15 03:39:38;;;;;;;3.83;0.82;;;1.20;80.40;;;;;;6246529;23;20004;-75
2022/01/15 03:42:11;;;;;;;2.25;1.08;;;1.20;80.00;;;;;;6246622;23;20000;-75
2022/01/15 03:44:41;;;;;;;2.80;1.15;;;1.20;79.70;;;;;;6220404;23;20434;-74
2022/01/15 03:47:07;;;;;;;2.43;1.00;;;1.30;79.80;;;;;;6220379;23;20005;-74
2022/01/15 03:49:33;;;;;;;3.25;1.52;;;1.30;79.80;;;;;;6220216;23;20046;-74
2022/01/15 03:51:58;;;;;;;3.90;1.08;;;1.40;80.30;;;;;;6246907;23;20315;-75
2022/01/15 03:54:24;;;;;;;4.45;1.20;;;1.40;80.30;;;;;;6219775;23;20031;-74
2022/01/15 03:56:49;;;;;;;2.25;1.17;;;1.40;80.70;;;;;;6247128;23;20075;-74
2022/01/15 03:59:15;;;;;;;5.18;1.38;;;1.40;81.00;;;;;;6220147;23;20051;-75
2022/01/15 04:01:41;;;;;;;4.88;1.30;;;1.40;81.40;;;;;;6218451;23;20012;-75
2022/01/15 04:04:06;;;;;;;5.50;1.40;;;1.40;82.10;;;;;;6246618;23;20007;-75
2022/01/15 04:06:32;;;;;;;3.10;1.23;;;1.40;82.50;;;;;;6219788;23;20004;-75
2022/01/15 04:08:59;;;;;;;2.40;1.30;;;1.40;83.00;;;;;;6220720;23;20004;-75
2022/01/15 04:11:25;;;;;;;4.32;1.48;;;1.40;83.40;;;;;;6219977;23;20000;-75
2022/01/15 04:13:51;;;;;;;4.00;1.40;;;1.40;83.70;;;;;;6219849;23;20400;-75
2022/01/15 04:16:17;;;;;;;3.55;1.30;;;1.40;83.90;;;;;;6246174;23;20055;-76
2022/01/15 04:18:42;;;;;;;4.20;1.48;;;1.30;84.10;;;;;;6219923;23;20080;-76
2022/01/15 04:21:11;;;;;;;1.50;0.98;;;1.30;84.30;;;;;;6219887;23;20027;-74
2022/01/15 04:23:37;;;;;;;3.03;1.23;;;1.30;84.50;;;;;;6219875;23;20031;-74
2022/01/15 04:26:03;;;;;;;3.00;1.30;;;1.30;84.60;;;;;;6246477;23;20012;-74
2022/01/15 04:28:32;;;;;;;2.78;1.23;;;1.30;84.90;;;;;;6246827;23;20028;-75
2022/01/15 04:31:04;;;;;;;2.05;1.10;;;1.30;84.90;;;;;;6219825;23;19996;-75
2022/01/15 04:33:34;;;;;;;2.38;1.30;;;1.30;85.10;;;;;;6219755;23;20059;-74
2022/01/15 04:36:00;;;;;;;1.98;0.88;;;1.20;85.40;;;;;;6219673;23;20005;-74
2022/01/15 04:38:27;;;;;;;3.10;1.23;;;1.20;85.60;;;;;;6246588;23;20007;-74
2022/01/15 04:40:52;;;;;;;5.18;1.17;;;1.20;85.80;;;;;;6219783;23;20374;-75
2022/01/15 04:43:18;;;;;;;1.83;0.93;;;1.20;86.10;;;;;;6219774;23;20004;-75
2022/01/15 04:45:44;;;;;;;1.88;1.08;;;1.20;86.20;;;;;;6246446;23;20076;-75
2022/01/15 04:48:10;;;;;;;2.55;1.38;;;1.10;86.80;;;;;;6246649;23;20003;-75
2022/01/15 04:50:35;;;;;;;2.10;1.30;;;1.00;86.80;;;;;;6246850;23;20000;-75
2022/01/15 04:53:01;;;;;;;3.05;1.30;;;0.90;87.00;;;;;;6248667;23;20423;-74
2022/01/15 04:55:27;;;;;;;2.63;1.33;;;0.90;88.00;;;;;;6248307;23;20008;-74
2022/01/15 04:57:52;;;;;;;2.58;0.88;;;0.80;88.70;;;;;;6248753;23;20000;-74
2022/01/15 05:00:19;;;;;;;4.57;1.48;;;0.80;89.10;;;;;;6221738;23;20000;-75
2022/01/15 05:02:44;;;;;;;2.40;1.10;;;0.80;89.80;;;;;;6221718;23;19996;-75
2022/01/15 05:05:11;;;;;;;2.85;1.20;;;0.70;90.20;;;;;;6248280;23;20007;-74
2022/01/15 05:07:37;;;;;;;1.48;1.08;;;0.70;90.30;;;;;;6221748;23;20035;-74
2022/01/15 05:10:04;;;;;;;5.75;1.58;;;0.70;90.60;;;;;;6248548;23;19996;-75
2022/01/15 05:12:41;;;;;;;2.13;1.00;;;0.70;90.80;;;;;;6248449;23;20005;-74
2022/01/15 05:15:07;;;;;;;3.53;1.23;;;0.70;90.80;;;;;;6247328;23;20011;-75
2022/01/15 05:17:33;;;;;;;3.00;1.52;;;0.80;90.60;;;;;;6221436;23;20000;-75
2022/01/15 05:19:59;;;;;;;2.42;1.30;;;0.90;90.20;;;;;;6221480;23;20085;-76
2022/01/15 05:22:25;;;;;;;1.85;1.20;;;0.90;90.00;;;;;;6248630;23;20082;-75
2022/01/15 05:24:50;;;;;;;3.13;1.50;;;1.00;89.50;;;;;;6248537;23;20007;-75
2022/01/15 05:27:16;;;;;;;2.13;1.20;;;1.10;88.80;;;;;;6221656;23;20004;-75
2022/01/15 05:29:42;;;;;;;3.28;1.60;;;1.10;87.90;;;;;;6221475;23;20423;-75
2022/01/15 05:32:08;;;;;;;2.10;1.20;;;1.20;87.30;;;;;;6248402;23;20004;-75
2022/01/15 05:34:34;;;;;;;3.00;1.25;;;1.20;87.00;;;;;;6221326;23;20099;-75
2022/01/15 05:36:59;;;;;;;4.60;1.77;;;1.20;86.60;;;;;;6247812;23;19996;-75
2022/01/15 05:39:25;;;;;;;6.13;1.25;;;1.30;85.80;;;;;;6248316;23;20001;-75
2022/01/15 05:41:51;;;;;;;4.57;1.30;;;1.30;85.00;;;;;;6220874;23;20010;-75
2022/01/15 05:44:16;;;;;;;2.65;1.02;;;1.40;84.40;;;;;;6220477;23;20008;-75
2022/01/15 05:46:44;;;;;;;5.30;1.58;;;1.40;84.10;;;;;;6221299;23;20350;-74
2022/01/15 05:49:10;;;;;;;3.47;1.58;;;1.50;83.80;;;;;;6221227;23;20000;-74
2022/01/15 05:51:35;;;;;;;2.97;1.50;;;1.50;83.10;;;;;;6248029;23;19996;-74
2022/01/15 05:54:10;;;;;;;4.30;1.58;;;1.60;83.00;;;;;;6248135;23;20366;-75
2022/01/15 05:56:37;;;;;;;3.17;1.35;;;1.60;82.20;;;;;;6248130;23;20000;-74
2022/01/15 05:59:03;;;;;;;2.70;1.35;;;1.60;82.20;;;;;;6247778;23;20063;-74
2022/01/15 06:01:29;;;;;;;4.40;1.58;;;1.60;82.40;;;;;;6247973;23;20474;-74
2022/01/15 06:03:55;;;;;;;2.75;1.30;;;1.70;82.20;;;;;;6247751;23;20000;-75
2022/01/15 06:06:21;;;;;;;1.05;0.93;;;1.70;81.90;;;;;;6221262;23;20008;-75
2022/01/15 06:08:47;;;;;;;2.65;1.40;;;1.70;81.70;;;;;;6221003;23;20288;-75
2022/01/15 06:11:17;;;;;;;2.22;1.10;;;1.70;81.80;;;;;;6221022;23;20003;-75
2022/01/15 06:13:44;;;;;;;2.10;1.17;;;1.80;81.70;;;;;;6221206;23;20485;-75
2022/01/15 06:16:10;;;;;;;3.97;1.40;;;1.80;81.30;;;;;;6220916;23;20010;-75
2022/01/15 06:18:36;;;;;;;2.35;1.20;;;1.80;81.70;;;;;;6221142;23;20090;-75
2022/01/15 06:21:02;;;;;;;2.22;1.08;;;1.80;81.80;;;;;;6221350;23;20027;-74
2022/01/15 06:23:28;;;;;;;3.10;1.65;;;1.90;81.70;;;;;;6247888;23;19992;-75
2022/01/15 06:25:55;;;;;;;4.22;1.20;;;1.90;81.70;;;;;;6220395;23;20034;-77
2022/01/15 06:28:20;;;;;;;2.90;1.40;;;1.90;81.80;;;;;;6247058;23;20088;-75
2022/01/15 06:30:46;;;;;;;4.65;1.85;;;1.90;81.80;;;;;;6220886;23;20004;-76
2022/01/15 06:33:12;;;;;;;2.92;1.98;;;1.90;81.70;;;;;;6247497;23;20075;-74
2022/01/15 06:35:37;;;;;;;3.72;2.00;;;2.00;81.70;;;;;;6247293;23;20000;-74
2022/01/15 06:38:03;;;;;;;4.05;1.80;;;2.00;81.70;;;;;;6220640;23;20069;-74
2022/01/15 06:40:29;;;;;;;1.88;1.35;;;1.90;81.90;;;;;;6247862;23;19997;-75
2022/01/15 06:42:55;;;;;;;5.00;2.20;;;2.00;82.00;;;;;;6220816;23;19996;-74
2022/01/15 06:45:20;;;;;;;4.47;2.00;;;2.00;81.90;;;;;;6247976;23;20374;-75
2022/01/15 06:47:46;;;;;;;2.78;1.70;;;2.00;81.10;;;;;;6221153;23;20031;-75
2022/01/15 06:50:12;;;;;;;3.30;1.85;;;2.00;80.50;;;;;;6247939;23;20431;-75
2022/01/15 06:52:38;;;;;;;3.70;1.70;;;2.00;80.80;;;;;;6220093;23;20411;-75
2022/01/15 06:55:06;;;;;;;6.00;2.33;;;2.00;81.00;;;;;;6247160;23;20003;-77
2022/01/15 06:57:38;;;;;;;5.47;2.30;;;2.10;80.90;;;;;;6219697;23;20122;-75
2022/01/15 07:00:12;;;;;;;6.15;2.80;;;2.20;80.70;;;;;;6220607;23;20423;-76
2022/01/15 07:02:38;;;;;;;12.25;4.57;;;2.10;80.70;;;;;;6220642;23;20011;-74
2022/01/15 07:05:08;;;;;;;8.13;4.72;;;2.10;80.60;;;;;;6220644;23;20004;-77
2022/01/15 07:07:43;;;;;;;6.38;3.72;;;2.20;80.50;;;;;;6247695;23;20016;-75
2022/01/15 07:10:15;;;;;;;7.28;3.85;;;2.20;80.60;;;;;;6220026;23;20493;-75
2022/01/15 07:12:41;;;;;;;7.90;3.63;;;2.20;80.40;;;;;;6220524;23;20058;-75
2022/01/15 07:15:16;;;;;;;5.47;3.40;;;2.20;80.10;;;;;;6246543;23;20007;-77
2022/01/15 07:17:43;;;;;;;6.65;3.10;;;2.30;79.60;;;;;;6220408;23;20000;-77
2022/01/15 07:20:10;;;;;;;6.07;2.40;;;2.20;79.60;;;;;;6220508;23;20087;-76
2022/01/15 07:22:37;;;;;;;4.40;1.90;;;2.30;79.80;;;;;;6220840;23;20004;-76
2022/01/15 07:25:03;;;;;;;5.38;2.20;;;2.30;80.00;;;;;;6220562;23;20327;-75
2022/01/15 07:27:29;;;;;;;3.70;2.17;;;2.30;80.00;;;;;;6220118;23;20491;-76
2022/01/15 07:29:55;;;;;;;7.00;3.10;;;2.40;80.10;;;;;;6246418;23;20032;-75
2022/01/15 07:32:20;;;;;;;5.10;2.90;;;2.40;79.90;;;;;;6220057;23;20004;-75
2022/01/15 07:34:46;;;;;;;7.38;3.08;;;2.50;79.90;;;;;;6246722;23;20047;-75
2022/01/15 07:37:12;;;;;;;3.67;2.17;;;2.60;79.40;;;;;;6247057;23;20004;-75
2022/01/15 07:39:37;;;;;;;3.47;2.10;;;2.60;79.00;;;;;;6246712;23;20023;-76
2022/01/15 07:42:04;;;;;;;2.90;1.80;;;2.60;78.50;;;;;;6220622;23;20312;-77
2022/01/15 07:44:29;;;;;;;3.97;1.77;;;2.70;78.30;;;;;;6220558;23;20012;-76
2022/01/15 07:46:55;;;;;;;4.80;1.63;;;2.70;77.90;;;;;;6246606;23;20073;-76
2022/01/15 07:49:23;;;;;;;6.43;2.70;;;2.80;77.70;;;;;;6220125;23;20385;-75
2022/01/15 07:51:49;;;;;;;3.97;2.10;;;2.90;77.70;;;;;;6220227;23;19996;-75
2022/01/15 07:54:15;;;;;;;3.38;1.67;;;3.00;78.50;;;;;;6219900;23;20070;-76
2022/01/15 07:56:40;;;;;;;4.53;1.80;;;3.40;78.40;;;;;;6220189;23;20000;-75
2022/01/15 07:59:06;;;;;;;3.00;1.70;;;3.70;76.70;;;;;;6248454;23;20000;-77
2022/01/15 08:01:32;;;;;;;3.00;1.63;;;3.90;73.80;;;;;;6220181;23;20004;-76
2022/01/15 08:03:57;;;;;;;4.43;1.70;;;3.90;72.30;;;;;;6219982;23;20007;-76
2022/01/15 08:06:23;;;;;;;3.28;1.50;;;3.90;70.70;;;;;;6246470;23;20026;-76
2022/01/15 08:08:49;;;;;;;3.65;1.55;;;3.80;71.90;;;;;;6247488;23;20111;-76
2022/01/15 08:11:14;;;;;;;2.35;1.42;;;3.80;71.10;;;;;;6247032;23;20004;-76
2022/01/15 08:13:40;;;;;;;3.15;1.67;;;3.80;70.80;;;;;;6220684;23;20375;-76
2022/01/15 08:16:07;;;;;;;3.60;1.58;;;3.80;71.00;;;;;;6221844;23;20066;-76
2022/01/15 08:18:32;;;;;;;5.28;1.73;;;3.90;70.60;;;;;;6219889;23;20023;-76
2022/01/15 08:20:58;;;;;;;4.20;1.63;;;3.90;69.90;;;;;;6245915;23;20000;-75
2022/01/15 08:23:24;;;;;;;3.95;1.48;;;3.90;68.70;;;;;;6219856;23;20004;-76
2022/01/15 08:25:50;;;;;;;3.15;1.38;;;3.90;67.60;;;;;;6219769;23;20004;-76
2022/01/15 08:28:17;;;;;;;3.72;1.40;;;3.90;67.50;;;;;;6246856;23;20003;-75
2022/01/15 08:30:44;;;;;;;2.55;1.40;;;3.90;67.60;;;;;;6220570;23;20016;-76
2022/01/15 08:33:10;;;;;;;3.25;1.65;;;3.90;68.00;;;;;;6219664;23;20054;-76
2022/01/15 08:35:36;;;;;;;2.90;1.25;;;3.90;66.30;;;;;;6219440;23;20012;-75
2022/01/15 08:38:04;;;;;;;2.88;1.20;;;3.80;66.10;;;;;;6219562;23;20054;-75
2022/01/15 08:40:32;;;;;;;2.10;1.00;;;3.80;66.70;;;;;;6219755;23;20419;-75
2022/01/15 08:42:59;;;;;;;2.08;1.15;;;3.80;66.50;;;;;;6246621;23;19996;-75
2022/01/15 08:45:26;;;;;;;2.25;1.20;;;3.80;65.90;;;;;;6246540;23;20083;-76
2022/01/15 08:47:56;;;;;;;4.25;1.40;;;3.80;66.00;;;;;;6219491;23;20047;-76
2022/01/15 08:50:23;;;;;;;2.42;1.00;;;3.80;65.70;;;;;;6219687;23;20027;-75
2022/01/15 08:52:48;;;;;;;2.63;1.35;;;3.80;65.10;;;;;;6219262;23;20379;-75
2022/01/15 08:55:16;;;;;;;2.70;1.13;;;3.80;64.80;;;;;;6219572;23;20008;-76
2022/01/15 08:57:43;;;;;;;2.22;0.95;;;3.80;65.10;;;;;;6219139;23;20000;-75
2022/01/15 09:00:13;;;;;;;2.47;0.80;;;3.80;64.70;;;;;;6219382;23;20051;-77
2022/01/15 09:02:39;;;;;;;1.63;0.90;;;3.80;65.30;;;;;;6247036;23;20086;-76
2022/01/15 09:05:08;;;;;;;1.50;0.80;;;3.80;64.20;;;;;;6219513;23;20000;-76
2022/01/15 09:07:34;;;;;;;2.35;0.98;;;3.90;65.10;;;;;;6219109;23;20001;-76
2022/01/15 09:10:00;;;;;;;2.88;0.77;;;3.90;64.80;;;;;;6219233;23;20006;-76
2022/01/15 09:12:29;;;;;;;2.20;1.33;;;4.00;64.70;;;;;;6246189;23;20031;-76
2022/01/15 09:15:03;;;;;;;3.97;1.80;;;4.00;65.00;;;;;;6246145;23;20008;-76
2022/01/15 09:17:29;;;;;;;2.42;1.73;;;4.10;65.10;;;;;;6219519;23;20000;-76
2022/01/15 09:19:58;;;;;;;3.42;1.80;;;4.00;65.20;;;;;;6219388;23;20007;-76
2022/01/15 09:22:25;;;;;;;4.10;2.03;;;4.00;66.00;;;;;;6219727;23;20087;-77
2022/01/15 09:24:51;;;;;;;2.47;1.45;;;4.00;66.40;;;;;;6219491;23;20059;-76
2022/01/15 09:30:12;;;;;;;2.97;1.50;;;3.90;66.40;;;;;;6246340;23;20055;-75
2022/01/15 09:32:47;;;;;;;5.30;1.52;;;3.90;66.90;;;;;;6219955;23;20004;-76
2022/01/15 09:35:14;;;;;;;2.88;1.80;;;3.90;67.20;;;;;;6219753;23;20015;-76
2022/01/15 09:37:40;;;;;;;4.57;1.63;;;3.80;67.00;;;;;;6219819;23;20003;-76
2022/01/15 09:40:08;;;;;;;2.67;1.58;;;3.80;67.40;;;;;;6221201;23;20000;-76
2022/01/15 09:42:35;;;;;;;2.88;1.40;;;3.80;67.90;;;;;;6221186;23;20011;-77
2022/01/15 09:45:03;;;;;;;2.80;1.30;;;3.80;68.00;;;;;;6221416;23;20015;-75
2022/01/15 09:47:31;;;;;;;3.00;1.40;;;3.80;68.30;;;;;;6221172;23;20000;-76
2022/01/15 09:49:57;;;;;;;2.72;1.33;;;3.80;68.40;;;;;;6220818;23;20011;-76
2022/01/15 09:52:24;;;;;;;2.10;1.27;;;3.80;68.70;;;;;;6220821;23;20036;-76
2022/01/15 09:54:51;;;;;;;3.13;1.17;;;3.90;68.50;;;;;;6247827;23;20012;-76
2022/01/15 09:57:18;;;;;;;3.78;1.65;;;3.90;68.50;;;;;;6220835;23;20052;-75
2022/01/15 09:59:44;;;;;;;2.58;1.60;;;3.90;68.60;;;;;;6221170;23;20008;-75
2022/01/15 10:02:10;;;;;;;2.13;1.58;;;3.90;68.40;;;;;;6221221;23;20044;-77
2022/01/15 10:04:36;;;;;;;6.18;1.83;;;3.90;68.20;;;;;;6221091;23;20004;-77
2022/01/15 10:07:27;;;;;;;4.50;1.65;;;3.90;68.00;;;;;;6221128;23;20000;-80
2022/01/15 10:09:54;;;;;;;5.97;2.05;;;3.90;67.60;;;;;;6247444;23;20004;-77
2022/01/15 10:12:26;;;;;;;4.47;1.95;;;4.00;67.50;;;;;;6221311;23;20004;-77
2022/01/15 10:14:57;;;;;;;4.25;1.63;;;4.00;67.10;;;;;;6219761;23;20441;-77
2022/01/15 10:17:25;;;;;;;4.35;1.70;;;4.00;67.30;;;;;;6220768;23;20423;-77
2022/01/15 10:19:52;;;;;;;3.10;1.50;;;4.00;66.90;;;;;;6221167;23;20004;-76
2022/01/15 10:22:23;;;;;;;3.67;1.73;;;4.00;67.00;;;;;;6222011;23;20003;-78
2022/01/15 10:24:57;;;;;;;2.42;1.27;;;4.00;66.90;;;;;;6249524;23;20004;-77
2022/01/15 10:27:30;;;;;;;3.28;1.50;;;4.00;67.30;;;;;;6248491;23;20011;-75
2022/01/15 10:30:09;;;;;;;3.45;1.33;;;4.00;67.70;;;;;;6221004;23;20323;-76
2022/01/15 10:32:40;;;;;;;2.42;1.25;;;4.10;67.80;;;;;;6247762;23;19998;-77
2022/01/15 10:35:13;;;;;;;;;;;4.10;68.30;;;;;;6220740;23;20035;-75
2022/01/15 10:37:57;;;;;;;2.80;1.50;;;4.10;67.60;;;;;;6220228;23;19983;-77
2022/01/15 10:40:27;;;;;;;3.08;1.42;;;4.10;68.20;;;;;;6220402;23;20370;-76
2022/01/15 10:42:58;;;;;;;2.50;1.50;;;4.10;68.30;;;;;;6220382;23;20063;-77
2022/01/15 10:45:29;;;;;;;3.33;1.30;;;4.00;68.60;;;;;;6246461;23;19997;-77
2022/01/15 10:47:57;;;;;;;3.33;1.73;;;4.00;69.10;;;;;;6220051;23;20011;-76
2022/01/15 10:50:37;;;;;;;2.88;1.52;;;4.10;69.40;;;;;;6220279;23;20004;-76
2022/01/15 10:53:11;;;;;;;4.63;2.00;;;4.10;69.30;;;;;;6247086;23;20046;-76
2022/01/15 10:55:39;;;;;;;3.30;1.70;;;4.10;69.30;;;;;;6247437;23;20004;-76
2022/01/15 10:58:06;;;;;;;2.80;1.65;;;4.10;69.30;;;;;;6220306;23;20415;-75
2022/01/15 11:00:39;;;;;;;3.05;1.60;;;4.00;69.50;;;;;;6220400;23;20004;-76
2022/01/15 11:03:10;;;;;;;2.25;1.35;;;4.00;70.10;;;;;;6220085;23;20027;-78
2022/01/15 11:05:43;;;;;;;3.15;2.00;;;4.00;70.50;;;;;;6220262;23;20087;-75
2022/01/15 11:08:15;;;;;;;3.60;1.40;;;4.00;70.70;;;;;;6220259;23;20423;-76
2022/01/15 11:10:56;;;;;;;5.45;1.80;;;3.90;70.70;;;;;;6247348;23;20001;-76
2022/01/15 11:13:33;;;;;;;3.40;1.60;;;3.90;70.70;;;;;;6220549;23;20001;-76
2022/01/15 11:16:14;;;;;;;3.70;1.60;;;3.90;71.00;;;;;;6220637;23;20427;-76
2022/01/15 11:18:44;;;;;;;5.00;2.03;;;3.90;70.90;;;;;;6247477;23;20075;-76
2022/01/15 11:21:18;;;;;;;3.08;1.65;;;3.90;71.20;;;;;;6220407;23;20001;-74
2022/01/15 11:23:45;;;;;;;3.28;1.50;;;3.90;70.90;;;;;;6247130;23;20011;-76
2022/01/15 11:26:13;;;;;;;107.85;54.38;;;3.90;71.10;;;;;;6220037;23;20000;-77
2022/01/15 11:28:41;;;;;;;47.30;24.38;;;3.80;71.20;;;;;;6219211;23;20051;-75
2022/01/15 11:31:24;;;;;;;29.92;15.82;;;3.90;71.70;;;;;;6219657;23;20058;-75
2022/01/15 11:33:52;;;;;;;16.40;8.20;;;3.90;71.60;;;;;;6219825;23;20000;-75
2022/01/15 11:36:33;;;;;;;11.23;4.90;;;3.90;71.80;;;;;;6219764;23;20015;-75
2022/01/15 11:39:03;;;;;;;5.78;2.80;;;3.90;71.90;;;;;;6215120;23;20011;-76
2022/01/15 11:41:29;;;;;;;4.60;2.20;;;3.90;71.90;;;;;;6216991;23;20007;-77
2022/01/15 11:43:59;;;;;;;4.47;2.00;;;4.00;72.10;;;;;;6243257;23;19999;-77
2022/01/15 11:46:31;;;;;;;3.50;1.70;;;4.00;71.40;;;;;;6216370;23;20015;-75
2022/01/15 11:49:34;;;;;;;5.25;1.85;;;4.00;71.10;;;;;;6217030;23;20003;-77
2022/01/15 11:52:09;;;;;;;3.95;1.80;;;4.00;71.10;;;;;;6243077;23;20004;-76
2022/01/15 11:54:40;;;;;;;3.92;1.60;;;4.10;70.80;;;;;;6215573;23;20099;-79
2022/01/15 11:57:54;;;;;;;3.85;1.45;;;4.00;70.20;;;;;;6242982;23;19996;-79
2022/01/15 12:00:26;;;;;;;2.20;1.40;;;4.10;69.90;;;;;;6209256;23;20010;-80
2022/01/15 12:03:06;;;;;;;4.40;1.40;;;4.10;70.20;;;;;;6241951;23;20004;-78
2022/01/15 12:05:35;;;;;;;2.08;1.35;;;4.10;70.00;;;;;;6242203;23;20005;-79
2022/01/15 12:08:01;;;;;;;2.15;1.27;;;4.10;70.50;;;;;;6215656;23;20036;-78
2022/01/15 12:10:45;;;;;;;2.55;1.48;;;4.20;70.40;;;;;;6243019;23;20004;-77
2022/01/15 12:13:15;;;;;;;2.72;1.48;;;4.20;69.00;;;;;;6242855;23;20002;-78
2022/01/15 12:15:41;;;;;;;4.13;1.95;;;4.30;70.10;;;;;;6242702;23;20008;-77
2022/01/15 12:18:18;;;;;;;5.35;2.00;;;4.30;69.80;;;;;;6242033;23;20050;-77
2022/01/15 12:20:44;;;;;;;4.55;2.20;;;4.40;69.60;;;;;;6216782;23;20104;-77
2022/01/15 12:23:19;;;;;;;4.30;1.90;;;4.50;70.00;;;;;;6216925;23;20004;-76
2022/01/15 12:25:47;;;;;;;2.78;1.50;;;4.50;70.00;;;;;;6216712;23;20015;-77
2022/01/15 12:28:14;;;;;;;5.38;2.10;;;4.60;70.30;;;;;;6216845;23;20495;-76
2022/01/15 12:30:46;;;;;;;3.95;1.98;;;4.60;70.30;;;;;;6215743;23;20335;-76
2022/01/15 12:33:13;;;;;;;3.55;2.10;;;4.50;70.40;;;;;;6216972;23;20001;-76
2022/01/15 12:35:47;;;;;;;6.40;2.30;;;4.60;71.30;;;;;;6216741;23;20059;-75
2022/01/15 12:38:25;;;;;;;4.82;2.33;;;4.80;70.60;;;;;;6216438;23;20019;-76
2022/01/15 12:41:04;;;;;;;4.38;2.33;;;4.70;70.40;;;;;;6216797;23;20000;-75
2022/01/15 12:43:35;;;;;;;4.60;1.95;;;4.50;71.40;;;;;;6216161;23;20007;-75
2022/01/15 12:46:02;;;;;;;;;;;4.30;72.60;;;;;;6217371;23;20311;-76
2022/01/15 12:48:33;;;;;;;4.07;1.70;;;4.10;75.20;;;;;;6216706;23;19903;-77
2022/01/15 12:51:06;;;;;;;3.83;1.80;;;4.00;74.90;;;;;;6216771;23;19996;-76
2022/01/15 12:53:39;;;;;;;3.10;1.55;;;3.90;75.90;;;;;;6216228;23;20490;-79
2022/01/15 12:56:06;;;;;;;3.33;1.45;;;3.90;76.20;;;;;;6242994;23;20005;-76
2022/01/15 12:58:32;;;;;;;2.55;1.50;;;3.80;76.80;;;;;;6242980;23;20004;-77
2022/01/15 13:00:58;;;;;;;3.15;1.65;;;3.60;78.10;;;;;;6216540;23;20005;-76
2022/01/15 13:03:25;;;;;;;3.83;1.50;;;3.60;78.90;;;;;;6243460;23;20004;-76
2022/01/15 13:05:55;;;;;;;3.95;1.55;;;3.50;80.20;;;;;;6215746;23;20000;-76
2022/01/15 13:08:39;;;;;;;6.03;1.75;;;3.30;82.40;;;;;;6215317;23;20027;-76
2022/01/15 13:13:47;;;;;;;3.13;1.50;;;3.20;84.10;;;;;;6254515;23;20006;-78
2022/01/15 13:16:21;;;;;;;3.20;1.55;;;3.20;83.30;;;;;;6217816;23;20023;-76
2022/01/15 13:18:49;;;;;;;2.10;1.58;;;3.20;83.70;;;;;;6218343;23;20007;-75
2022/01/15 13:21:20;;;;;;;4.07;1.80;;;3.20;83.20;;;;;;6218798;23;20000;-76
2022/01/15 13:23:51;;;;;;;4.72;1.70;;;3.40;85.30;;;;;;6218212;23;20513;-76
2022/01/15 13:26:33;;;;;;;4.30;1.75;;;3.80;83.60;;;;;;6218416;23;20007;-76
2022/01/15 13:29:02;;;;;;;3.75;2.08;;;4.10;81.10;;;;;;6218544;23;20052;-76